createdAt,value
2022-12-16T00:01:55.153Z,2.40
2022-12-16T00:04:27.807Z,2.40
2022-12-16T00:06:56.532Z,2.40
2022-12-16T00:09:32.319Z,2.30
2022-12-16T00:12:00.325Z,2.30
2022-12-16T00:14:29.145Z,2.20
2022-12-16T00:16:59.698Z,2.20
2022-12-16T00:19:29.245Z,2.20
2022-12-16T00:21:57.353Z,2.20
2022-12-16T00:24:27.828Z,2.10
2022-12-16T00:29:40.152Z,2.00
2022-12-16T00:32:09.095Z,2.10
2022-12-16T00:34:41.490Z,2.00
2022-12-16T00:37:11.094Z,1.90
2022-12-16T00:39:40.786Z,1.90
2022-12-16T00:42:08.970Z,2.00
2022-12-16T00:44:42.346Z,1.80
2022-12-16T00:47:10.727Z,1.90
2022-12-16T00:49:43.654Z,1.90
2022-12-16T00:59:38.135Z,1.80
2022-12-16T01:02:11.798Z,1.80
2022-12-16T01:04:40.059Z,1.80
2022-12-16T01:07:10.418Z,1.70
2022-12-16T01:12:10.988Z,1.70
2022-12-16T01:14:39.692Z,1.40
2022-12-16T01:19:53.650Z,1.60
2022-12-16T01:22:32.149Z,1.70
2022-12-16T01:25:01.200Z,1.70
2022-12-16T01:29:57.819Z,1.60
2022-12-16T01:32:26.326Z,1.70
2022-12-16T01:34:55.935Z,1.80
2022-12-16T01:37:24.909Z,1.70
2022-12-16T01:39:54.382Z,1.70
2022-12-16T01:45:36.745Z,1.80
2022-12-16T01:48:13.392Z,-0.40
2022-12-16T01:50:41.880Z,1.80
2022-12-16T01:58:07.239Z,-0.20
2022-12-16T02:03:08.439Z,2.00
2022-12-16T02:05:42.706Z,2.00
2022-12-16T02:08:24.153Z,2.10
2022-12-16T02:11:21.658Z,2.10
2022-12-16T02:14:22.186Z,2.10
2022-12-16T02:16:58.106Z,2.20
2022-12-16T02:19:51.255Z,2.10
2022-12-16T02:22:34.924Z,2.30
2022-12-16T02:25:33.824Z,2.30
2022-12-16T02:28:08.207Z,2.40
2022-12-16T02:31:05.283Z,2.30
2022-12-16T02:33:51.894Z,2.40
2022-12-16T02:36:43.238Z,2.40
2022-12-16T02:39:26.443Z,2.40
2022-12-16T02:42:01.561Z,2.50
2022-12-16T02:44:42.372Z,2.40
2022-12-16T02:47:11.854Z,2.50
2022-12-16T02:50:01.540Z,2.40
2022-12-16T02:52:32.098Z,2.50
2022-12-16T02:55:04.058Z,2.50
2022-12-16T02:57:51.739Z,2.60
2022-12-16T03:00:22.205Z,3.30
2022-12-16T03:03:00.763Z,2.60
2022-12-16T03:05:34.535Z,2.70
2022-12-16T03:08:06.949Z,2.70
2022-12-16T03:10:39.740Z,2.70
2022-12-16T03:13:15.889Z,2.80
2022-12-16T03:15:45.917Z,2.70
2022-12-16T03:18:23.272Z,2.80
2022-12-16T03:21:00.051Z,2.80
2022-12-16T03:23:32.905Z,2.90
2022-12-16T03:26:10.442Z,2.80
2022-12-16T03:29:00.857Z,2.80
2022-12-16T03:34:32.518Z,2.90
2022-12-16T03:37:11.121Z,2.90
2022-12-16T03:39:42.153Z,3.00
2022-12-16T03:42:11.633Z,3.00
2022-12-16T03:44:42.977Z,3.00
2022-12-16T03:47:11.418Z,3.00
2022-12-16T03:49:41.424Z,3.10
2022-12-16T03:52:10.117Z,3.10
2022-12-16T03:54:38.359Z,3.10
2022-12-16T03:57:11.766Z,3.10
2022-12-16T03:59:52.265Z,3.30
2022-12-16T04:02:40.868Z,3.20
2022-12-16T04:05:12.842Z,3.40
2022-12-16T04:07:41.723Z,3.40
2022-12-16T04:10:10.871Z,3.40
2022-12-16T04:12:56.918Z,3.40
2022-12-16T04:15:42.886Z,3.50
2022-12-16T04:18:36.952Z,3.40
2022-12-16T04:24:27.109Z,3.40
2022-12-16T04:34:55.579Z,3.60
2022-12-16T04:37:42.944Z,3.60
2022-12-16T04:40:29.751Z,5.10
2022-12-16T04:46:05.503Z,3.60
2022-12-16T04:49:01.056Z,3.70
2022-12-16T04:54:42.857Z,3.70
2022-12-16T05:00:28.636Z,4.50
2022-12-16T05:03:17.364Z,3.70
2022-12-16T05:08:51.873Z,3.70
2022-12-16T05:11:42.048Z,3.70
2022-12-16T05:14:28.064Z,4.10
2022-12-16T05:19:59.486Z,3.70
2022-12-16T05:22:47.427Z,3.70
2022-12-16T05:28:23.719Z,3.70
2022-12-16T05:33:58.250Z,3.60
2022-12-16T05:36:43.944Z,3.50
2022-12-16T05:42:18.524Z,3.50
2022-12-16T05:45:08.106Z,3.40
2022-12-16T05:48:05.690Z,3.30
2022-12-16T05:50:51.051Z,3.20
2022-12-16T05:53:36.556Z,3.20
2022-12-16T05:56:25.983Z,3.00
2022-12-16T05:59:11.736Z,2.90
2022-12-16T06:02:01.551Z,2.90
2022-12-16T06:07:36.746Z,2.90
2022-12-16T06:10:24.674Z,2.70
2022-12-16T06:13:12.516Z,2.80
2022-12-16T06:15:57.964Z,2.70
2022-12-16T06:18:55.373Z,2.70
2022-12-16T06:21:48.427Z,2.60
2022-12-16T06:24:35.164Z,2.50
2022-12-16T06:35:41.154Z,2.40
2022-12-16T06:38:26.819Z,2.30
2022-12-16T06:44:01.413Z,2.30
2022-12-16T06:49:41.139Z,2.20
2022-12-16T06:52:30.267Z,2.10
2022-12-16T06:55:19.357Z,2.00
2022-12-16T06:58:10.101Z,1.90
2022-12-16T07:01:01.385Z,2.00
2022-12-16T07:06:55.810Z,1.70
2022-12-16T07:09:42.845Z,1.80
2022-12-16T07:15:25.387Z,1.80
2022-12-16T07:18:13.939Z,1.60
2022-12-16T07:20:59.776Z,1.60
2022-12-16T07:23:45.865Z,1.40
2022-12-16T07:26:33.079Z,1.50
2022-12-16T07:29:22.257Z,1.50
2022-12-16T07:35:01.402Z,1.40
2022-12-16T07:43:43.533Z,1.40
2022-12-16T07:46:28.860Z,1.30
2022-12-16T07:49:16.431Z,1.20
2022-12-16T07:57:52.904Z,1.40
2022-12-16T08:00:42.341Z,1.20
2022-12-16T08:03:30.568Z,1.20
2022-12-16T08:06:19.197Z,1.10
2022-12-16T08:14:51.717Z,1.00
2022-12-16T08:17:50.259Z,1.00
2022-12-16T08:20:43.601Z,0.90
2022-12-16T08:26:19.024Z,1.00
2022-12-16T08:29:43.853Z,0.90
2022-12-16T08:39:30.262Z,0.90
2022-12-16T08:42:17.263Z,0.90
2022-12-16T08:50:43.215Z,1.00
2022-12-16T08:53:28.837Z,1.00
2022-12-16T08:56:14.622Z,1.00
2022-12-16T08:59:01.582Z,1.00
2022-12-16T09:02:07.085Z,1.10
2022-12-16T09:10:52.106Z,1.10
2022-12-16T09:13:43.450Z,1.20
2022-12-16T09:16:34.648Z,1.20
2022-12-16T09:19:37.606Z,1.30
2022-12-16T09:22:23.291Z,1.30
2022-12-16T09:25:14.795Z,1.40
2022-12-16T09:33:37.986Z,1.70
2022-12-16T09:39:12.638Z,2.20
2022-12-16T09:42:03.996Z,2.10
2022-12-16T09:45:02.325Z,2.10
2022-12-16T09:47:56.547Z,2.30
2022-12-16T09:50:45.245Z,2.40
2022-12-16T09:53:33.826Z,2.50
2022-12-16T09:56:22.171Z,2.60
2022-12-16T09:59:16.322Z,2.70
2022-12-16T10:02:03.000Z,2.80
2022-12-16T10:04:51.017Z,2.80
2022-12-16T10:07:42.629Z,2.90
2022-12-16T10:10:38.517Z,3.00
2022-12-16T10:13:37.425Z,3.00
2022-12-16T10:16:42.528Z,3.10
2022-12-16T10:19:38.521Z,3.10
2022-12-16T10:22:50.737Z,3.30
2022-12-16T10:25:54.089Z,3.40
2022-12-16T10:29:01.622Z,3.50
2022-12-16T10:31:47.754Z,3.60
2022-12-16T10:38:02.236Z,6.10
2022-12-16T10:40:55.472Z,3.80
2022-12-16T10:43:56.194Z,4.50
2022-12-16T10:46:51.690Z,4.10
2022-12-16T10:49:38.485Z,4.10
2022-12-16T10:52:36.798Z,4.30
2022-12-16T10:55:42.526Z,4.40
2022-12-16T10:58:52.384Z,4.40
2022-12-16T11:04:56.746Z,4.70
2022-12-16T11:08:11.701Z,4.70
2022-12-16T11:11:00.810Z,4.90
2022-12-16T11:13:48.123Z,4.90
2022-12-16T11:16:40.712Z,5.00
2022-12-16T11:19:53.804Z,5.10
2022-12-16T11:22:41.764Z,5.10
2022-12-16T11:25:34.098Z,5.20
2022-12-16T11:28:32.917Z,5.30
2022-12-16T11:31:31.652Z,5.30
2022-12-16T11:34:23.244Z,5.40
2022-12-16T11:37:20.997Z,5.40
2022-12-16T11:40:10.290Z,5.50
2022-12-16T11:43:01.416Z,5.50
2022-12-16T11:45:56.693Z,5.60
2022-12-16T11:48:51.747Z,5.50
2022-12-16T11:52:03.775Z,5.60
2022-12-16T11:55:15.644Z,5.70
2022-12-16T11:58:17.668Z,5.70
2022-12-16T12:01:10.218Z,5.70
2022-12-16T12:04:04.641Z,5.70
2022-12-16T12:07:10.785Z,5.70
2022-12-16T12:10:08.377Z,5.80
2022-12-16T12:13:02.389Z,5.80
2022-12-16T12:15:56.061Z,5.80
2022-12-16T12:18:57.087Z,3.80
2022-12-16T12:21:45.566Z,5.90
2022-12-16T12:24:45.931Z,5.90
2022-12-16T12:27:45.526Z,5.90
2022-12-16T12:30:37.366Z,5.90
2022-12-16T12:33:53.632Z,5.90
2022-12-16T12:36:52.883Z,5.90
2022-12-16T12:39:56.330Z,6.00
2022-12-16T12:42:56.235Z,6.00
2022-12-16T12:46:13.784Z,6.00
2022-12-16T12:49:08.238Z,6.10
2022-12-16T12:52:05.407Z,6.00
2022-12-16T12:55:02.813Z,6.10
2022-12-16T12:57:52.507Z,6.20
2022-12-16T13:00:41.321Z,6.10
2022-12-16T13:03:42.818Z,6.10
2022-12-16T13:06:38.919Z,6.20
2022-12-16T13:09:44.915Z,6.20
2022-12-16T13:15:57.347Z,6.20
2022-12-16T13:18:46.359Z,6.10
2022-12-16T13:22:05.776Z,6.30
2022-12-16T13:25:06.538Z,6.20
2022-12-16T13:28:21.041Z,6.30
2022-12-16T13:31:25.546Z,6.20
2022-12-16T13:34:13.663Z,6.20
2022-12-16T13:37:00.461Z,6.20
2022-12-16T13:39:53.572Z,6.20
2022-12-16T13:43:10.420Z,6.20
2022-12-16T13:45:59.103Z,6.30
2022-12-16T13:48:52.264Z,6.20
2022-12-16T13:52:22.001Z,6.20
2022-12-16T13:55:30.113Z,6.20
2022-12-16T13:58:26.655Z,6.20
2022-12-16T14:01:25.626Z,6.30
2022-12-16T14:04:26.724Z,6.30
2022-12-16T14:07:16.657Z,6.20
2022-12-16T14:10:07.745Z,6.20
2022-12-16T14:13:25.292Z,6.20
2022-12-16T14:16:20.165Z,6.20
2022-12-16T14:19:22.052Z,6.20
2022-12-16T14:22:17.985Z,6.10
2022-12-16T14:27:54.985Z,6.20
2022-12-16T14:30:55.356Z,6.10
2022-12-16T14:33:50.401Z,6.10
2022-12-16T14:36:57.190Z,6.10
2022-12-16T14:39:51.175Z,6.10
2022-12-16T14:42:45.457Z,6.10
2022-12-16T14:45:55.397Z,6.00
2022-12-16T14:48:55.023Z,6.00
2022-12-16T14:51:45.749Z,6.00
2022-12-16T14:54:53.509Z,6.00
2022-12-16T14:57:45.589Z,6.00
2022-12-16T15:00:35.104Z,6.00
2022-12-16T15:03:29.899Z,5.90
2022-12-16T15:06:23.359Z,5.90
2022-12-16T15:09:15.123Z,5.90
2022-12-16T15:12:02.868Z,5.90
2022-12-16T15:14:50.904Z,5.90
2022-12-16T15:17:41.603Z,5.80
2022-12-16T15:20:35.957Z,5.80
2022-12-16T15:23:29.275Z,5.70
2022-12-16T15:26:24.787Z,5.70
2022-12-16T15:29:12.696Z,5.70
2022-12-16T15:32:03.204Z,5.70
2022-12-16T15:35:08.108Z,5.60
2022-12-16T15:38:03.822Z,5.60
2022-12-16T15:41:10.557Z,9.10
2022-12-16T15:43:58.548Z,5.50
2022-12-16T15:46:50.906Z,5.50
2022-12-16T15:49:53.473Z,5.50
2022-12-16T15:52:54.256Z,5.50
2022-12-16T15:55:50.199Z,5.30
2022-12-16T15:58:49.197Z,5.40
2022-12-16T16:01:44.674Z,5.30
2022-12-16T16:04:36.983Z,5.30
2022-12-16T16:07:23.178Z,5.30
2022-12-16T16:10:24.931Z,5.30
2022-12-16T16:13:11.011Z,5.20
2022-12-16T16:15:58.542Z,5.10
2022-12-16T16:18:53.555Z,5.20
2022-12-16T16:21:39.458Z,5.10
2022-12-16T16:24:25.765Z,5.00
2022-12-16T16:27:15.369Z,5.00
2022-12-16T16:30:15.126Z,5.00
2022-12-16T16:33:10.935Z,4.90
2022-12-16T16:36:01.641Z,4.90
2022-12-16T16:38:51.751Z,4.90
2022-12-16T16:41:41.900Z,4.80
2022-12-16T16:44:35.091Z,4.80
2022-12-16T16:47:23.440Z,4.70
2022-12-16T16:50:16.069Z,4.70
2022-12-16T16:53:10.479Z,4.60
2022-12-16T16:55:55.565Z,4.50
2022-12-16T16:58:54.108Z,4.60
2022-12-16T17:01:42.464Z,4.60
2022-12-16T17:04:31.635Z,3.50
2022-12-16T17:07:17.583Z,4.60
2022-12-16T17:10:05.572Z,4.70
2022-12-16T17:12:51.521Z,4.70
2022-12-16T17:15:41.148Z,4.70
2022-12-16T17:18:29.692Z,4.60
2022-12-16T17:21:16.979Z,4.80
2022-12-16T17:24:05.480Z,4.70
2022-12-16T17:26:51.442Z,4.70
2022-12-16T17:29:42.845Z,4.80
2022-12-16T17:32:29.536Z,4.70
2022-12-16T17:35:16.359Z,4.70
2022-12-16T17:38:03.402Z,4.70
2022-12-16T17:40:57.010Z,4.70
2022-12-16T17:43:45.690Z,4.70
2022-12-16T17:46:31.511Z,4.70
2022-12-16T17:49:15.733Z,4.80
2022-12-16T17:52:08.079Z,4.70
2022-12-16T17:54:56.029Z,6.40
2022-12-16T18:00:29.123Z,4.70
2022-12-16T18:03:15.011Z,4.70
2022-12-16T18:06:02.572Z,4.70
2022-12-16T18:08:53.341Z,4.60
2022-12-16T18:11:42.731Z,4.70
2022-12-16T18:14:31.446Z,4.70
2022-12-16T18:17:22.637Z,4.60
2022-12-16T18:20:15.989Z,4.70
2022-12-16T18:23:01.606Z,4.60
2022-12-16T18:28:40.479Z,4.60
2022-12-16T18:31:35.388Z,4.70
2022-12-16T18:34:38.381Z,4.60
2022-12-16T18:37:30.455Z,4.70
2022-12-16T18:46:20.832Z,4.60
2022-12-16T18:49:11.712Z,4.60
2022-12-16T18:51:58.806Z,4.50
2022-12-16T18:55:02.107Z,4.50
2022-12-16T18:58:08.980Z,4.70
2022-12-16T19:01:04.626Z,4.60
2022-12-16T19:03:53.639Z,4.60
2022-12-16T19:06:59.530Z,4.60
2022-12-16T19:09:44.716Z,4.50
2022-12-16T19:12:30.253Z,4.50
2022-12-16T19:15:15.537Z,4.50
2022-12-16T19:18:08.732Z,4.50
2022-12-16T19:20:56.865Z,4.50
2022-12-16T19:23:53.844Z,4.40
2022-12-16T19:26:46.256Z,4.50
2022-12-16T19:29:31.825Z,4.40
2022-12-16T19:32:27.654Z,4.60
2022-12-16T19:38:02.902Z,4.50
2022-12-16T19:40:50.719Z,4.60
2022-12-16T19:43:40.883Z,4.50
2022-12-16T19:46:29.640Z,4.50
2022-12-16T19:49:22.275Z,4.50
2022-12-16T19:55:02.452Z,4.50
2022-12-16T19:57:51.580Z,4.50
2022-12-16T20:00:55.214Z,4.50
2022-12-16T20:03:42.896Z,4.50
2022-12-16T20:06:31.367Z,4.50
2022-12-16T20:09:17.148Z,4.60
2022-12-16T20:12:05.519Z,4.50
2022-12-16T20:14:52.238Z,4.50
2022-12-16T20:23:14.860Z,4.50
2022-12-16T20:26:03.378Z,4.50
2022-12-16T20:28:53.758Z,4.50
2022-12-16T20:31:44.043Z,4.50
2022-12-16T20:34:36.546Z,4.50
2022-12-16T20:37:52.854Z,4.40
2022-12-16T20:43:30.871Z,4.50
2022-12-16T20:46:23.527Z,4.50
2022-12-16T20:49:12.708Z,6.00
2022-12-16T20:57:35.953Z,4.50
2022-12-16T21:00:24.560Z,4.40
2022-12-16T21:03:11.481Z,4.40
2022-12-16T21:08:45.634Z,4.40
2022-12-16T21:11:32.074Z,4.50
2022-12-16T21:14:22.521Z,4.50
2022-12-16T21:17:11.693Z,4.50
2022-12-16T21:20:01.386Z,4.50
2022-12-16T21:22:50.251Z,4.40
2022-12-16T21:25:35.545Z,4.50
2022-12-16T21:28:24.850Z,4.40
2022-12-16T21:31:10.380Z,4.50
2022-12-16T21:33:56.152Z,4.30
2022-12-16T21:36:43.204Z,4.50
2022-12-16T21:39:25.235Z,4.50
2022-12-16T21:44:59.052Z,4.50
2022-12-16T21:47:44.490Z,4.50
2022-12-16T21:50:30.047Z,4.50
2022-12-16T21:53:17.158Z,4.50
2022-12-16T21:56:02.974Z,4.50
2022-12-16T21:58:49.875Z,4.50
2022-12-16T22:10:20.583Z,4.40
2022-12-16T22:13:14.455Z,4.40
2022-12-16T22:21:42.842Z,4.30
2022-12-16T22:24:36.941Z,4.40
2022-12-16T22:27:24.084Z,4.30
2022-12-16T22:30:09.566Z,4.40
2022-12-16T22:32:58.274Z,4.40
2022-12-16T22:35:44.392Z,4.30
2022-12-16T22:38:31.910Z,4.40
2022-12-16T22:41:25.807Z,4.40
2022-12-16T22:44:29.312Z,4.40
2022-12-16T22:47:25.091Z,4.40
2022-12-16T22:53:01.969Z,4.40
2022-12-16T22:58:36.081Z,4.50
2022-12-16T23:01:27.091Z,4.40
2022-12-16T23:04:15.416Z,4.40
2022-12-16T23:09:51.129Z,4.30
2022-12-16T23:12:39.151Z,4.40
2022-12-16T23:15:26.413Z,4.40
2022-12-16T23:18:16.231Z,4.40
2022-12-16T23:21:10.659Z,4.30
2022-12-16T23:23:56.752Z,4.40
2022-12-16T23:28:55.416Z,4.40
2022-12-16T23:31:42.831Z,4.30
2022-12-16T23:34:31.734Z,4.40
2022-12-16T23:37:19.156Z,4.50
2022-12-16T23:40:09.883Z,4.40
2022-12-16T23:42:57.627Z,4.40
2022-12-16T23:45:46.419Z,4.40
2022-12-16T23:51:24.136Z,4.40
2022-12-16T23:57:23.503Z,4.40
